sensor_id;sensor_type;location;lat;lon;timestamp;P1;durP1;ratioP1;P2;durP2;ratioP2
43706;SDS011;61348;53.392;-6.248;2023-04-15T00:00:09;7.95;;;2.53;;
43706;SDS011;61348;53.392;-6.248;2023-04-15T00:02:37;3.38;;;2.00;;
43706;SDS011;61348;53.392;-6.248;2023-04-15T00:05:04;5.13;;;2.35;;
43706;SDS011;61348;53.392;-6.248;2023-04-15T00:07:31;4.43;;;1.80;;
43706;SDS011;61348;53.392;-6.248;2023-04-15T00:09:58;3.30;;;1.80;;
43706;SDS011;61348;53.392;-6.248;2023-04-15T00:12:25;7.63;;;1.70;;
43706;SDS011;61348;53.392;-6.248;2023-04-15T00:14:53;4.20;;;1.48;;
43706;SDS011;61348;53.392;-6.248;2023-04-15T00:17:21;7.07;;;2.53;;
43706;SDS011;61348;53.392;-6.248;2023-04-15T00:19:48;3.20;;;2.00;;
43706;SDS011;61348;53.392;-6.248;2023-04-15T00:22:15;10.75;;;1.85;;
43706;SDS011;61348;53.392;-6.248;2023-04-15T00:24:42;6.68;;;1.52;;
43706;SDS011;61348;53.392;-6.248;2023-04-15T00:27:09;12.57;;;2.47;;
43706;SDS011;61348;53.392;-6.248;2023-04-15T00:29:36;4.35;;;1.80;;
43706;SDS011;61348;53.392;-6.248;2023-04-15T00:32:03;9.68;;;2.50;;
43706;SDS011;61348;53.392;-6.248;2023-04-15T00:34:29;5.70;;;1.85;;
43706;SDS011;61348;53.392;-6.248;2023-04-15T00:36:56;6.20;;;1.65;;
43706;SDS011;61348;53.392;-6.248;2023-04-15T00:39:23;9.73;;;2.10;;
43706;SDS011;61348;53.392;-6.248;2023-04-15T00:41:50;5.30;;;2.67;;
43706;SDS011;61348;53.392;-6.248;2023-04-15T00:44:17;7.35;;;2.40;;
43706;SDS011;61348;53.392;-6.248;2023-04-15T00:46:44;8.57;;;2.47;;
43706;SDS011;61348;53.392;-6.248;2023-04-15T00:49:11;6.97;;;3.08;;
43706;SDS011;61348;53.392;-6.248;2023-04-15T00:51:38;6.00;;;2.63;;
43706;SDS011;61348;53.392;-6.248;2023-04-15T00:54:05;8.82;;;2.92;;
43706;SDS011;61348;53.392;-6.248;2023-04-15T00:56:34;4.55;;;2.03;;
43706;SDS011;61348;53.392;-6.248;2023-04-15T00:59:03;7.97;;;2.50;;
43706;SDS011;61348;53.392;-6.248;2023-04-15T01:01:32;8.38;;;3.08;;
43706;SDS011;61348;53.392;-6.248;2023-04-15T01:04:00;5.47;;;2.00;;
43706;SDS011;61348;53.392;-6.248;2023-04-15T01:06:29;6.93;;;1.80;;
43706;SDS011;61348;53.392;-6.248;2023-04-15T01:08:57;3.97;;;1.70;;
43706;SDS011;61348;53.392;-6.248;2023-04-15T01:11:25;5.35;;;1.90;;
43706;SDS011;61348;53.392;-6.248;2023-04-15T01:13:54;6.13;;;1.77;;
43706;SDS011;61348;53.392;-6.248;2023-04-15T01:16:22;5.68;;;1.75;;
43706;SDS011;61348;53.392;-6.248;2023-04-15T01:18:49;7.78;;;2.13;;
43706;SDS011;61348;53.392;-6.248;2023-04-15T01:21:16;6.38;;;2.30;;
43706;SDS011;61348;53.392;-6.248;2023-04-15T01:23:44;10.05;;;2.20;;
43706;SDS011;61348;53.392;-6.248;2023-04-15T01:26:12;8.52;;;2.00;;
43706;SDS011;61348;53.392;-6.248;2023-04-15T01:28:39;6.63;;;2.08;;
43706;SDS011;61348;53.392;-6.248;2023-04-15T01:33:37;6.93;;;1.60;;
43706;SDS011;61348;53.392;-6.248;2023-04-15T01:36:05;6.20;;;2.08;;
43706;SDS011;61348;53.392;-6.248;2023-04-15T01:38:33;5.60;;;1.70;;
43706;SDS011;61348;53.392;-6.248;2023-04-15T01:41:01;3.38;;;1.67;;
43706;SDS011;61348;53.392;-6.248;2023-04-15T01:43:30;11.80;;;2.47;;
43706;SDS011;61348;53.392;-6.248;2023-04-15T01:45:56;7.65;;;2.97;;
43706;SDS011;61348;53.392;-6.248;2023-04-15T01:48:23;6.60;;;3.50;;
43706;SDS011;61348;53.392;-6.248;2023-04-15T01:50:51;11.45;;;2.53;;
43706;SDS011;61348;53.392;-6.248;2023-04-15T01:53:18;9.23;;;3.95;;
43706;SDS011;61348;53.392;-6.248;2023-04-15T01:55:45;6.00;;;3.28;;
43706;SDS011;61348;53.392;-6.248;2023-04-15T01:58:12;4.35;;;2.75;;
43706;SDS011;61348;53.392;-6.248;2023-04-15T02:00:39;5.45;;;3.90;;
43706;SDS011;61348;53.392;-6.248;2023-04-15T02:03:06;6.47;;;3.35;;
43706;SDS011;61348;53.392;-6.248;2023-04-15T02:05:33;8.38;;;3.28;;
43706;SDS011;61348;53.392;-6.248;2023-04-15T02:08:00;19.92;;;6.05;;
43706;SDS011;61348;53.392;-6.248;2023-04-15T02:10:26;19.13;;;5.18;;
43706;SDS011;61348;53.392;-6.248;2023-04-15T02:12:53;15.45;;;4.75;;
43706;SDS011;61348;53.392;-6.248;2023-04-15T02:15:20;11.60;;;3.70;;
43706;SDS011;61348;53.392;-6.248;2023-04-15T02:17:47;12.98;;;4.82;;
43706;SDS011;61348;53.392;-6.248;2023-04-15T02:20:16;8.70;;;2.95;;
43706;SDS011;61348;53.392;-6.248;2023-04-15T02:22:44;7.38;;;2.65;;
43706;SDS011;61348;53.392;-6.248;2023-04-15T02:25:11;18.65;;;3.45;;
43706;SDS011;61348;53.392;-6.248;2023-04-15T02:27:38;11.27;;;2.45;;
43706;SDS011;61348;53.392;-6.248;2023-04-15T02:30:04;7.85;;;2.22;;
43706;SDS011;61348;53.392;-6.248;2023-04-15T02:32:32;7.05;;;2.42;;
43706;SDS011;61348;53.392;-6.248;2023-04-15T02:35:06;12.20;;;3.22;;
43706;SDS011;61348;53.392;-6.248;2023-04-15T02:37:34;6.55;;;2.30;;
43706;SDS011;61348;53.392;-6.248;2023-04-15T02:40:09;9.65;;;2.58;;
43706;SDS011;61348;53.392;-6.248;2023-04-15T02:42:39;4.97;;;2.22;;
43706;SDS011;61348;53.392;-6.248;2023-04-15T02:45:06;9.20;;;2.22;;
43706;SDS011;61348;53.392;-6.248;2023-04-15T02:47:34;5.25;;;2.40;;
43706;SDS011;61348;53.392;-6.248;2023-04-15T02:50:04;5.97;;;2.15;;
43706;SDS011;61348;53.392;-6.248;2023-04-15T02:52:33;9.75;;;2.10;;
43706;SDS011;61348;53.392;-6.248;2023-04-15T02:54:59;4.63;;;1.90;;
43706;SDS011;61348;53.392;-6.248;2023-04-15T02:57:27;10.30;;;2.15;;
43706;SDS011;61348;53.392;-6.248;2023-04-15T02:59:54;6.68;;;1.75;;
43706;SDS011;61348;53.392;-6.248;2023-04-15T03:02:21;6.93;;;2.28;;
43706;SDS011;61348;53.392;-6.248;2023-04-15T03:04:49;8.20;;;2.80;;
43706;SDS011;61348;53.392;-6.248;2023-04-15T03:07:16;4.20;;;2.03;;
43706;SDS011;61348;53.392;-6.248;2023-04-15T03:09:44;11.13;;;2.88;;
43706;SDS011;61348;53.392;-6.248;2023-04-15T03:12:12;7.95;;;3.42;;
43706;SDS011;61348;53.392;-6.248;2023-04-15T03:14:39;10.27;;;2.97;;
43706;SDS011;61348;53.392;-6.248;2023-04-15T03:17:07;13.20;;;3.70;;
43706;SDS011;61348;53.392;-6.248;2023-04-15T03:19:34;10.98;;;3.75;;
43706;SDS011;61348;53.392;-6.248;2023-04-15T03:22:01;7.30;;;3.08;;
43706;SDS011;61348;53.392;-6.248;2023-04-15T03:24:28;7.00;;;2.63;;
43706;SDS011;61348;53.392;-6.248;2023-04-15T03:26:55;14.23;;;3.85;;
43706;SDS011;61348;53.392;-6.248;2023-04-15T03:29:23;5.88;;;2.85;;
43706;SDS011;61348;53.392;-6.248;2023-04-15T03:31:50;11.35;;;3.60;;
43706;SDS011;61348;53.392;-6.248;2023-04-15T03:34:17;13.65;;;4.00;;
43706;SDS011;61348;53.392;-6.248;2023-04-15T03:36:44;12.98;;;4.47;;
43706;SDS011;61348;53.392;-6.248;2023-04-15T03:39:12;10.82;;;4.22;;
43706;SDS011;61348;53.392;-6.248;2023-04-15T03:41:39;12.32;;;4.10;;
43706;SDS011;61348;53.392;-6.248;2023-04-15T03:44:05;11.73;;;6.32;;
43706;SDS011;61348;53.392;-6.248;2023-04-15T03:46:32;11.60;;;3.83;;
43706;SDS011;61348;53.392;-6.248;2023-04-15T03:49:00;14.95;;;4.28;;
43706;SDS011;61348;53.392;-6.248;2023-04-15T03:51:27;19.40;;;5.20;;
43706;SDS011;61348;53.392;-6.248;2023-04-15T03:53:55;24.73;;;5.93;;
43706;SDS011;61348;53.392;-6.248;2023-04-15T03:56:22;18.75;;;4.97;;
43706;SDS011;61348;53.392;-6.248;2023-04-15T03:58:48;17.45;;;7.30;;
43706;SDS011;61348;53.392;-6.248;2023-04-15T04:01:15;14.48;;;4.63;;
43706;SDS011;61348;53.392;-6.248;2023-04-15T04:03:42;16.67;;;5.72;;
43706;SDS011;61348;53.392;-6.248;2023-04-15T04:06:09;14.48;;;4.72;;
43706;SDS011;61348;53.392;-6.248;2023-04-15T04:08:37;13.35;;;6.97;;
43706;SDS011;61348;53.392;-6.248;2023-04-15T04:11:04;12.65;;;5.38;;
43706;SDS011;61348;53.392;-6.248;2023-04-15T04:13:31;14.85;;;6.28;;
43706;SDS011;61348;53.392;-6.248;2023-04-15T04:15:57;17.10;;;4.38;;
43706;SDS011;61348;53.392;-6.248;2023-04-15T04:18:24;13.98;;;5.43;;
43706;SDS011;61348;53.392;-6.248;2023-04-15T04:20:52;15.20;;;4.55;;
43706;SDS011;61348;53.392;-6.248;2023-04-15T04:23:18;17.35;;;5.57;;
43706;SDS011;61348;53.392;-6.248;2023-04-15T04:25:45;6.70;;;2.75;;
43706;SDS011;61348;53.392;-6.248;2023-04-15T04:28:12;6.30;;;3.08;;
43706;SDS011;61348;53.392;-6.248;2023-04-15T04:30:39;9.20;;;3.30;;
43706;SDS011;61348;53.392;-6.248;2023-04-15T04:33:06;8.85;;;3.20;;
43706;SDS011;61348;53.392;-6.248;2023-04-15T04:35:33;8.30;;;3.30;;
43706;SDS011;61348;53.392;-6.248;2023-04-15T04:38:03;17.38;;;3.97;;
43706;SDS011;61348;53.392;-6.248;2023-04-15T04:40:29;10.52;;;3.88;;
43706;SDS011;61348;53.392;-6.248;2023-04-15T04:42:56;12.30;;;4.35;;
43706;SDS011;61348;53.392;-6.248;2023-04-15T04:45:23;10.48;;;3.13;;
43706;SDS011;61348;53.392;-6.248;2023-04-15T04:47:49;11.98;;;3.97;;
43706;SDS011;61348;53.392;-6.248;2023-04-15T04:50:16;14.32;;;3.92;;
43706;SDS011;61348;53.392;-6.248;2023-04-15T04:52:43;7.88;;;3.08;;
43706;SDS011;61348;53.392;-6.248;2023-04-15T04:55:10;9.55;;;3.08;;
43706;SDS011;61348;53.392;-6.248;2023-04-15T04:57:36;7.00;;;2.90;;
43706;SDS011;61348;53.392;-6.248;2023-04-15T05:00:05;7.22;;;2.65;;
43706;SDS011;61348;53.392;-6.248;2023-04-15T05:02:33;5.57;;;2.95;;
43706;SDS011;61348;53.392;-6.248;2023-04-15T05:05:00;11.60;;;4.20;;
43706;SDS011;61348;53.392;-6.248;2023-04-15T05:07:27;4.18;;;2.22;;
43706;SDS011;61348;53.392;-6.248;2023-04-15T05:09:54;9.98;;;2.85;;
43706;SDS011;61348;53.392;-6.248;2023-04-15T05:12:20;7.05;;;3.08;;
43706;SDS011;61348;53.392;-6.248;2023-04-15T05:14:47;6.22;;;3.00;;
43706;SDS011;61348;53.392;-6.248;2023-04-15T05:17:14;6.05;;;3.17;;
43706;SDS011;61348;53.392;-6.248;2023-04-15T05:19:41;6.70;;;3.38;;
43706;SDS011;61348;53.392;-6.248;2023-04-15T05:22:07;10.70;;;2.67;;
43706;SDS011;61348;53.392;-6.248;2023-04-15T05:24:34;10.90;;;3.60;;
43706;SDS011;61348;53.392;-6.248;2023-04-15T05:27:01;4.78;;;3.00;;
43706;SDS011;61348;53.392;-6.248;2023-04-15T05:29:28;16.10;;;3.90;;
43706;SDS011;61348;53.392;-6.248;2023-04-15T05:31:55;13.60;;;2.78;;
43706;SDS011;61348;53.392;-6.248;2023-04-15T05:34:22;6.45;;;2.60;;
43706;SDS011;61348;53.392;-6.248;2023-04-15T05:36:49;6.10;;;2.88;;
43706;SDS011;61348;53.392;-6.248;2023-04-15T05:39:16;10.52;;;3.58;;
43706;SDS011;61348;53.392;-6.248;2023-04-15T05:41:42;6.05;;;2.35;;
43706;SDS011;61348;53.392;-6.248;2023-04-15T05:44:09;6.80;;;2.47;;
43706;SDS011;61348;53.392;-6.248;2023-04-15T05:46:36;10.25;;;3.55;;
43706;SDS011;61348;53.392;-6.248;2023-04-15T05:49:03;5.50;;;3.03;;
43706;SDS011;61348;53.392;-6.248;2023-04-15T05:51:30;10.25;;;2.97;;
43706;SDS011;61348;53.392;-6.248;2023-04-15T05:53:57;5.35;;;2.67;;
43706;SDS011;61348;53.392;-6.248;2023-04-15T05:56:23;9.95;;;2.67;;
43706;SDS011;61348;53.392;-6.248;2023-04-15T05:58:52;8.43;;;3.13;;
43706;SDS011;61348;53.392;-6.248;2023-04-15T06:01:19;8.88;;;2.30;;
43706;SDS011;61348;53.392;-6.248;2023-04-15T06:03:46;8.07;;;4.97;;
43706;SDS011;61348;53.392;-6.248;2023-04-15T06:06:12;8.45;;;2.65;;
43706;SDS011;61348;53.392;-6.248;2023-04-15T06:08:40;8.25;;;2.60;;
43706;SDS011;61348;53.392;-6.248;2023-04-15T06:11:07;9.65;;;2.50;;
43706;SDS011;61348;53.392;-6.248;2023-04-15T06:13:39;9.77;;;3.10;;
43706;SDS011;61348;53.392;-6.248;2023-04-15T06:16:05;5.03;;;2.88;;
43706;SDS011;61348;53.392;-6.248;2023-04-15T06:18:33;5.53;;;2.92;;
43706;SDS011;61348;53.392;-6.248;2023-04-15T06:20:59;6.57;;;2.85;;
43706;SDS011;61348;53.392;-6.248;2023-04-15T06:23:26;8.50;;;2.72;;
43706;SDS011;61348;53.392;-6.248;2023-04-15T06:25:53;10.70;;;3.33;;
43706;SDS011;61348;53.392;-6.248;2023-04-15T06:28:21;11.45;;;3.58;;
43706;SDS011;61348;53.392;-6.248;2023-04-15T06:30:48;9.02;;;2.30;;
43706;SDS011;61348;53.392;-6.248;2023-04-15T06:33:14;8.68;;;2.75;;
43706;SDS011;61348;53.392;-6.248;2023-04-15T06:35:41;6.93;;;2.58;;
43706;SDS011;61348;53.392;-6.248;2023-04-15T06:38:08;9.40;;;2.22;;
43706;SDS011;61348;53.392;-6.248;2023-04-15T06:40:34;6.82;;;2.85;;
43706;SDS011;61348;53.392;-6.248;2023-04-15T06:43:02;5.68;;;2.78;;
43706;SDS011;61348;53.392;-6.248;2023-04-15T06:45:30;8.95;;;2.53;;
43706;SDS011;61348;53.392;-6.248;2023-04-15T06:47:57;12.25;;;2.90;;
43706;SDS011;61348;53.392;-6.248;2023-04-15T06:50:24;8.50;;;2.40;;
43706;SDS011;61348;53.392;-6.248;2023-04-15T06:52:51;9.30;;;2.92;;
43706;SDS011;61348;53.392;-6.248;2023-04-15T06:55:17;6.65;;;3.75;;
43706;SDS011;61348;53.392;-6.248;2023-04-15T06:57:44;7.85;;;2.45;;
43706;SDS011;61348;53.392;-6.248;2023-04-15T07:00:11;8.23;;;2.33;;
43706;SDS011;61348;53.392;-6.248;2023-04-15T07:02:38;10.95;;;2.90;;
43706;SDS011;61348;53.392;-6.248;2023-04-15T07:05:06;8.65;;;3.10;;
43706;SDS011;61348;53.392;-6.248;2023-04-15T07:07:33;12.75;;;3.08;;
43706;SDS011;61348;53.392;-6.248;2023-04-15T07:10:02;6.60;;;2.72;;
43706;SDS011;61348;53.392;-6.248;2023-04-15T07:12:29;6.15;;;2.53;;
43706;SDS011;61348;53.392;-6.248;2023-04-15T07:14:57;7.18;;;2.85;;
43706;SDS011;61348;53.392;-6.248;2023-04-15T07:17:24;9.80;;;3.70;;
43706;SDS011;61348;53.392;-6.248;2023-04-15T07:19:50;10.40;;;3.25;;
43706;SDS011;61348;53.392;-6.248;2023-04-15T07:22:17;7.05;;;3.40;;
43706;SDS011;61348;53.392;-6.248;2023-04-15T07:24:44;9.77;;;2.67;;
43706;SDS011;61348;53.392;-6.248;2023-04-15T07:27:11;11.57;;;2.80;;
43706;SDS011;61348;53.392;-6.248;2023-04-15T07:29:39;7.93;;;2.60;;
43706;SDS011;61348;53.392;-6.248;2023-04-15T07:32:05;7.93;;;2.58;;
43706;SDS011;61348;53.392;-6.248;2023-04-15T07:34:32;6.90;;;3.25;;
43706;SDS011;61348;53.392;-6.248;2023-04-15T07:36:59;7.63;;;2.58;;
43706;SDS011;61348;53.392;-6.248;2023-04-15T07:39:26;6.57;;;2.40;;
43706;SDS011;61348;53.392;-6.248;2023-04-15T07:41:54;8.98;;;2.80;;
43706;SDS011;61348;53.392;-6.248;2023-04-15T07:44:21;9.70;;;2.83;;
43706;SDS011;61348;53.392;-6.248;2023-04-15T07:46:48;5.60;;;2.38;;
43706;SDS011;61348;53.392;-6.248;2023-04-15T07:49:14;9.88;;;2.30;;
43706;SDS011;61348;53.392;-6.248;2023-04-15T07:51:41;6.47;;;2.30;;
43706;SDS011;61348;53.392;-6.248;2023-04-15T07:54:09;7.63;;;3.92;;
43706;SDS011;61348;53.392;-6.248;2023-04-15T07:56:35;5.53;;;2.88;;
43706;SDS011;61348;53.392;-6.248;2023-04-15T07:59:02;8.70;;;2.35;;
43706;SDS011;61348;53.392;-6.248;2023-04-15T08:01:31;7.28;;;2.13;;
43706;SDS011;61348;53.392;-6.248;2023-04-15T08:04:01;6.45;;;2.10;;
43706;SDS011;61348;53.392;-6.248;2023-04-15T08:06:29;6.95;;;2.60;;
43706;SDS011;61348;53.392;-6.248;2023-04-15T08:08:56;7.93;;;2.10;;
43706;SDS011;61348;53.392;-6.248;2023-04-15T08:11:23;5.47;;;1.98;;
43706;SDS011;61348;53.392;-6.248;2023-04-15T08:13:50;6.10;;;2.08;;
43706;SDS011;61348;53.392;-6.248;2023-04-15T08:18:49;5.78;;;1.83;;
43706;SDS011;61348;53.392;-6.248;2023-04-15T08:21:17;5.78;;;2.55;;
43706;SDS011;61348;53.392;-6.248;2023-04-15T08:23:46;8.65;;;3.00;;
43706;SDS011;61348;53.392;-6.248;2023-04-15T08:26:13;9.57;;;2.33;;
43706;SDS011;61348;53.392;-6.248;2023-04-15T08:28:41;5.40;;;1.92;;
43706;SDS011;61348;53.392;-6.248;2023-04-15T08:31:09;7.13;;;2.28;;
43706;SDS011;61348;53.392;-6.248;2023-04-15T08:33:36;4.45;;;1.70;;
43706;SDS011;61348;53.392;-6.248;2023-04-15T08:36:03;3.35;;;1.58;;
43706;SDS011;61348;53.392;-6.248;2023-04-15T08:38:29;4.75;;;1.90;;
43706;SDS011;61348;53.392;-6.248;2023-04-15T08:40:57;7.82;;;1.80;;
43706;SDS011;61348;53.392;-6.248;2023-04-15T08:46:00;7.07;;;1.97;;
43706;SDS011;61348;53.392;-6.248;2023-04-15T08:48:31;5.22;;;1.92;;
43706;SDS011;61348;53.392;-6.248;2023-04-15T08:50:58;2.90;;;2.05;;
43706;SDS011;61348;53.392;-6.248;2023-04-15T08:53:27;3.28;;;1.95;;
43706;SDS011;61348;53.392;-6.248;2023-04-15T08:55:56;7.63;;;1.63;;
43706;SDS011;61348;53.392;-6.248;2023-04-15T08:58:23;5.38;;;1.60;;
43706;SDS011;61348;53.392;-6.248;2023-04-15T09:00:51;5.97;;;1.75;;
43706;SDS011;61348;53.392;-6.248;2023-04-15T09:03:18;3.63;;;1.75;;
43706;SDS011;61348;53.392;-6.248;2023-04-15T09:05:47;3.97;;;1.70;;
43706;SDS011;61348;53.392;-6.248;2023-04-15T09:08:14;3.58;;;1.83;;
43706;SDS011;61348;53.392;-6.248;2023-04-15T09:10:40;2.60;;;0.95;;
43706;SDS011;61348;53.392;-6.248;2023-04-15T09:13:07;4.55;;;1.42;;
43706;SDS011;61348;53.392;-6.248;2023-04-15T09:15:36;4.18;;;1.10;;
43706;SDS011;61348;53.392;-6.248;2023-04-15T09:18:04;4.20;;;1.38;;
43706;SDS011;61348;53.392;-6.248;2023-04-15T09:20:39;2.50;;;1.20;;
43706;SDS011;61348;53.392;-6.248;2023-04-15T09:23:12;5.10;;;1.88;;
43706;SDS011;61348;53.392;-6.248;2023-04-15T09:25:42;2.95;;;1.20;;
43706;SDS011;61348;53.392;-6.248;2023-04-15T09:28:09;10.18;;;1.73;;
43706;SDS011;61348;53.392;-6.248;2023-04-15T09:30:37;2.22;;;1.20;;
43706;SDS011;61348;53.392;-6.248;2023-04-15T09:33:04;3.15;;;0.82;;
43706;SDS011;61348;53.392;-6.248;2023-04-15T09:35:33;4.90;;;0.80;;
43706;SDS011;61348;53.392;-6.248;2023-04-15T09:38:04;10.27;;;2.38;;
43706;SDS011;61348;53.392;-6.248;2023-04-15T09:43:07;1.17;;;0.43;;
43706;SDS011;61348;53.392;-6.248;2023-04-15T09:45:35;1.75;;;0.57;;
43706;SDS011;61348;53.392;-6.248;2023-04-15T09:48:21;2.45;;;0.45;;
43706;SDS011;61348;53.392;-6.248;2023-04-15T09:50:50;1.15;;;0.52;;
43706;SDS011;61348;53.392;-6.248;2023-04-15T09:53:20;1.77;;;0.50;;
43706;SDS011;61348;53.392;-6.248;2023-04-15T09:55:57;1.15;;;0.47;;
43706;SDS011;61348;53.392;-6.248;2023-04-15T09:58:27;2.72;;;0.80;;
43706;SDS011;61348;53.392;-6.248;2023-04-15T10:00:56;2.83;;;0.93;;
43706;SDS011;61348;53.392;-6.248;2023-04-15T10:03:25;3.90;;;0.80;;
43706;SDS011;61348;53.392;-6.248;2023-04-15T10:05:58;6.22;;;1.00;;
43706;SDS011;61348;53.392;-6.248;2023-04-15T10:08:27;2.42;;;0.88;;
43706;SDS011;61348;53.392;-6.248;2023-04-15T10:11:01;2.30;;;0.47;;
43706;SDS011;61348;53.392;-6.248;2023-04-15T10:13:30;3.80;;;0.68;;
43706;SDS011;61348;53.392;-6.248;2023-04-15T10:16:07;2.05;;;0.55;;
43706;SDS011;61348;53.392;-6.248;2023-04-15T10:18:37;1.17;;;0.63;;
43706;SDS011;61348;53.392;-6.248;2023-04-15T10:21:08;1.65;;;0.40;;
43706;SDS011;61348;53.392;-6.248;2023-04-15T10:23:35;3.45;;;0.40;;
43706;SDS011;61348;53.392;-6.248;2023-04-15T10:26:05;4.28;;;0.50;;
43706;SDS011;61348;53.392;-6.248;2023-04-15T10:28:33;1.77;;;0.60;;
43706;SDS011;61348;53.392;-6.248;2023-04-15T10:31:00;2.10;;;0.30;;
43706;SDS011;61348;53.392;-6.248;2023-04-15T10:33:27;2.53;;;0.40;;
43706;SDS011;61348;53.392;-6.248;2023-04-15T10:35:55;6.22;;;0.43;;
43706;SDS011;61348;53.392;-6.248;2023-04-15T10:38:39;1.58;;;0.32;;
43706;SDS011;61348;53.392;-6.248;2023-04-15T10:44:03;1.25;;;0.20;;
43706;SDS011;61348;53.392;-6.248;2023-04-15T10:49:11;0.65;;;0.22;;
43706;SDS011;61348;53.392;-6.248;2023-04-15T10:51:41;0.73;;;0.20;;
43706;SDS011;61348;53.392;-6.248;2023-04-15T10:57:05;1.60;;;0.75;;
43706;SDS011;61348;53.392;-6.248;2023-04-15T10:59:38;2.22;;;0.40;;
43706;SDS011;61348;53.392;-6.248;2023-04-15T11:02:39;0.47;;;0.30;;
43706;SDS011;61348;53.392;-6.248;2023-04-15T11:05:49;1.60;;;0.43;;
43706;SDS011;61348;53.392;-6.248;2023-04-15T11:08:17;2.97;;;0.30;;
43706;SDS011;61348;53.392;-6.248;2023-04-15T11:15:38;1.65;;;0.30;;
43706;SDS011;61348;53.392;-6.248;2023-04-15T11:18:08;1.75;;;0.47;;
43706;SDS011;61348;53.392;-6.248;2023-04-15T11:20:38;0.85;;;0.40;;
43706;SDS011;61348;53.392;-6.248;2023-04-15T11:23:08;1.00;;;0.20;;
43706;SDS011;61348;53.392;-6.248;2023-04-15T11:25:40;0.88;;;0.30;;
43706;SDS011;61348;53.392;-6.248;2023-04-15T11:28:09;0.68;;;0.28;;
43706;SDS011;61348;53.392;-6.248;2023-04-15T11:30:37;1.10;;;0.93;;
43706;SDS011;61348;53.392;-6.248;2023-04-15T11:33:06;3.55;;;0.90;;
43706;SDS011;61348;53.392;-6.248;2023-04-15T11:35:35;2.97;;;1.30;;
43706;SDS011;61348;53.392;-6.248;2023-04-15T11:38:07;3.08;;;1.35;;
43706;SDS011;61348;53.392;-6.248;2023-04-15T11:40:36;2.20;;;1.38;;
43706;SDS011;61348;53.392;-6.248;2023-04-15T11:43:07;2.15;;;1.13;;
43706;SDS011;61348;53.392;-6.248;2023-04-15T11:48:21;5.30;;;3.35;;
43706;SDS011;61348;53.392;-6.248;2023-04-15T11:50:54;3.45;;;2.65;;
43706;SDS011;61348;53.392;-6.248;2023-04-15T11:53:35;15.52;;;2.50;;
43706;SDS011;61348;53.392;-6.248;2023-04-15T11:56:10;4.97;;;2.00;;
43706;SDS011;61348;53.392;-6.248;2023-04-15T11:58:43;3.78;;;1.20;;
43706;SDS011;61348;53.392;-6.248;2023-04-15T12:01:11;5.43;;;1.00;;
43706;SDS011;61348;53.392;-6.248;2023-04-15T12:03:39;2.80;;;1.00;;
43706;SDS011;61348;53.392;-6.248;2023-04-15T12:14:07;5.38;;;1.23;;
43706;SDS011;61348;53.392;-6.248;2023-04-15T12:16:50;2.08;;;0.77;;
43706;SDS011;61348;53.392;-6.248;2023-04-15T12:19:25;2.38;;;1.20;;
43706;SDS011;61348;53.392;-6.248;2023-04-15T12:21:56;4.65;;;1.08;;
43706;SDS011;61348;53.392;-6.248;2023-04-15T12:24:28;2.80;;;0.80;;
43706;SDS011;61348;53.392;-6.248;2023-04-15T12:27:00;4.32;;;1.30;;
43706;SDS011;61348;53.392;-6.248;2023-04-15T12:29:36;2.70;;;1.10;;
43706;SDS011;61348;53.392;-6.248;2023-04-15T12:32:08;7.50;;;1.30;;
43706;SDS011;61348;53.392;-6.248;2023-04-15T12:34:40;3.47;;;1.13;;
43706;SDS011;61348;53.392;-6.248;2023-04-15T12:37:10;4.20;;;1.00;;
43706;SDS011;61348;53.392;-6.248;2023-04-15T12:39:40;2.95;;;0.82;;
43706;SDS011;61348;53.392;-6.248;2023-04-15T12:42:08;4.07;;;0.90;;
43706;SDS011;61348;53.392;-6.248;2023-04-15T12:44:36;3.40;;;1.25;;
43706;SDS011;61348;53.392;-6.248;2023-04-15T12:47:04;2.85;;;1.00;;
43706;SDS011;61348;53.392;-6.248;2023-04-15T12:49:31;5.18;;;1.65;;
43706;SDS011;61348;53.392;-6.248;2023-04-15T12:52:01;2.83;;;1.25;;
43706;SDS011;61348;53.392;-6.248;2023-04-15T12:54:29;3.17;;;1.20;;
43706;SDS011;61348;53.392;-6.248;2023-04-15T12:56:57;2.58;;;1.48;;
43706;SDS011;61348;53.392;-6.248;2023-04-15T12:59:25;3.53;;;0.85;;
43706;SDS011;61348;53.392;-6.248;2023-04-15T13:01:52;5.07;;;1.20;;
43706;SDS011;61348;53.392;-6.248;2023-04-15T13:04:20;6.68;;;1.50;;
43706;SDS011;61348;53.392;-6.248;2023-04-15T13:06:47;3.30;;;1.33;;
43706;SDS011;61348;53.392;-6.248;2023-04-15T13:09:14;8.18;;;3.10;;
43706;SDS011;61348;53.392;-6.248;2023-04-15T13:11:41;8.05;;;1.90;;
43706;SDS011;61348;53.392;-6.248;2023-04-15T13:14:08;4.68;;;1.25;;
43706;SDS011;61348;53.392;-6.248;2023-04-15T13:16:37;6.03;;;1.63;;
43706;SDS011;61348;53.392;-6.248;2023-04-15T13:19:04;4.53;;;1.15;;
43706;SDS011;61348;53.392;-6.248;2023-04-15T13:21:31;4.20;;;0.70;;
43706;SDS011;61348;53.392;-6.248;2023-04-15T13:24:01;1.60;;;1.00;;
43706;SDS011;61348;53.392;-6.248;2023-04-15T13:26:29;2.78;;;1.08;;
43706;SDS011;61348;53.392;-6.248;2023-04-15T13:28:56;4.88;;;1.10;;
43706;SDS011;61348;53.392;-6.248;2023-04-15T13:31:23;3.35;;;1.50;;
43706;SDS011;61348;53.392;-6.248;2023-04-15T13:33:50;2.75;;;0.45;;
43706;SDS011;61348;53.392;-6.248;2023-04-15T13:36:17;5.85;;;1.00;;
43706;SDS011;61348;53.392;-6.248;2023-04-15T13:38:43;2.33;;;0.82;;
43706;SDS011;61348;53.392;-6.248;2023-04-15T13:41:10;2.08;;;0.65;;
43706;SDS011;61348;53.392;-6.248;2023-04-15T13:43:37;1.83;;;0.73;;
43706;SDS011;61348;53.392;-6.248;2023-04-15T13:46:04;7.88;;;2.67;;
43706;SDS011;61348;53.392;-6.248;2023-04-15T13:48:31;2.05;;;1.10;;
43706;SDS011;61348;53.392;-6.248;2023-04-15T13:50:57;1.77;;;0.68;;
43706;SDS011;61348;53.392;-6.248;2023-04-15T13:53:24;4.45;;;1.30;;
43706;SDS011;61348;53.392;-6.248;2023-04-15T13:56:04;7.05;;;1.02;;
43706;SDS011;61348;53.392;-6.248;2023-04-15T13:58:31;3.45;;;1.27;;
43706;SDS011;61348;53.392;-6.248;2023-04-15T14:00:59;5.45;;;0.80;;
43706;SDS011;61348;53.392;-6.248;2023-04-15T14:03:29;1.67;;;0.60;;
43706;SDS011;61348;53.392;-6.248;2023-04-15T14:05:56;3.60;;;0.82;;
43706;SDS011;61348;53.392;-6.248;2023-04-15T14:08:23;27.33;;;2.33;;
43706;SDS011;61348;53.392;-6.248;2023-04-15T14:10:51;3.53;;;0.63;;
43706;SDS011;61348;53.392;-6.248;2023-04-15T14:13:18;2.28;;;0.90;;
43706;SDS011;61348;53.392;-6.248;2023-04-15T14:15:46;2.38;;;1.15;;
43706;SDS011;61348;53.392;-6.248;2023-04-15T14:18:13;3.88;;;1.33;;
43706;SDS011;61348;53.392;-6.248;2023-04-15T14:20:39;4.80;;;1.35;;
43706;SDS011;61348;53.392;-6.248;2023-04-15T14:23:06;4.05;;;1.20;;
43706;SDS011;61348;53.392;-6.248;2023-04-15T14:25:33;4.97;;;0.93;;
43706;SDS011;61348;53.392;-6.248;2023-04-15T14:28:00;6.15;;;1.00;;
43706;SDS011;61348;53.392;-6.248;2023-04-15T14:30:27;5.03;;;2.08;;
43706;SDS011;61348;53.392;-6.248;2023-04-15T14:32:54;3.50;;;2.00;;
43706;SDS011;61348;53.392;-6.248;2023-04-15T14:35:21;13.82;;;12.23;;
43706;SDS011;61348;53.392;-6.248;2023-04-15T14:37:49;4.78;;;2.22;;
43706;SDS011;61348;53.392;-6.248;2023-04-15T14:40:16;5.30;;;2.13;;
43706;SDS011;61348;53.392;-6.248;2023-04-15T14:42:44;10.82;;;3.55;;
43706;SDS011;61348;53.392;-6.248;2023-04-15T14:45:11;7.15;;;1.30;;
43706;SDS011;61348;53.392;-6.248;2023-04-15T14:47:38;8.20;;;1.60;;
43706;SDS011;61348;53.392;-6.248;2023-04-15T14:50:05;6.35;;;1.58;;
43706;SDS011;61348;53.392;-6.248;2023-04-15T14:52:32;6.68;;;1.52;;
43706;SDS011;61348;53.392;-6.248;2023-04-15T14:55:07;7.55;;;1.90;;
43706;SDS011;61348;53.392;-6.248;2023-04-15T14:57:36;6.90;;;1.77;;
43706;SDS011;61348;53.392;-6.248;2023-04-15T15:00:06;5.22;;;1.92;;
43706;SDS011;61348;53.392;-6.248;2023-04-15T15:02:33;76.40;;;9.82;;
43706;SDS011;61348;53.392;-6.248;2023-04-15T15:07:33;9.55;;;2.92;;
43706;SDS011;61348;53.392;-6.248;2023-04-15T15:10:01;7.82;;;3.10;;
43706;SDS011;61348;53.392;-6.248;2023-04-15T15:12:28;11.88;;;4.05;;